Time;durP1;ratioP1;P1;durP2;ratioP2;P2;SDS_P1;SDS_P2;PMS_P1;PMS_P2;Temp;Humidity;BMP_temperature;BMP_pressure;BME280_temperature;BME280_humidity;BME280_pressure;Samples;Min_cycle;Max_cycle;Signal;HPM_P1;HPM_P2
2022/04/22 00:01:35;;;;;;;11.17;10.00;;;10.80;99.90;;;;;;2612074;54;20524;-74
2022/04/22 00:04:01;;;;;;;11.40;10.13;;;10.70;99.90;;;;;;2609520;54;20691;-76
2022/04/22 00:06:28;;;;;;;11.80;10.60;;;10.80;99.90;;;;;;2607820;54;20410;-74
2022/04/22 00:08:54;;;;;;;12.17;9.87;;;10.70;99.90;;;;;;2607791;54;20436;-74
2022/04/22 00:11:29;;;;;;;12.37;10.23;;;10.70;99.90;;;;;;2610683;54;20428;-74
2022/04/22 00:13:57;;;;;;;14.47;11.40;;;10.70;99.90;;;;;;2609135;54;20142;-74
2022/04/22 00:16:25;;;;;;;11.17;10.07;;;10.70;99.90;;;;;;2608392;54;20415;-74
2022/04/22 00:18:51;;;;;;;11.13;9.97;;;10.60;99.90;;;;;;2609368;54;20395;-74
2022/04/22 00:21:17;;;;;;;10.63;9.50;;;10.60;99.90;;;;;;2610856;39;21075;-75
2022/04/22 00:23:45;;;;;;;10.27;9.20;;;10.60;99.90;;;;;;2609514;54;20419;-73
2022/04/22 00:26:11;;;;;;;12.13;10.60;;;10.60;99.90;;;;;;2607693;54;20162;-74
2022/04/22 00:28:37;;;;;;;11.50;10.23;;;10.50;99.90;;;;;;2608744;39;21052;-74
2022/04/22 00:31:03;;;;;;;10.93;9.73;;;10.50;99.90;;;;;;2609445;54;20428;-76
2022/04/22 00:33:29;;;;;;;12.47;11.03;;;10.50;99.90;;;;;;2608810;54;20423;-75
2022/04/22 00:35:55;;;;;;;10.90;9.80;;;10.50;99.90;;;;;;2609098;54;21433;-74
2022/04/22 00:38:21;;;;;;;10.67;8.13;;;10.50;99.90;;;;;;2611627;54;20411;-72
2022/04/22 00:40:46;;;;;;;12.07;10.87;;;10.40;99.90;;;;;;2614091;54;20189;-74
2022/04/22 00:43:22;;;;;;;11.87;10.13;;;10.40;99.90;;;;;;2607383;47;20369;-74
2022/04/22 00:45:48;;;;;;;13.27;11.20;;;10.40;99.90;;;;;;2608878;54;20147;-75
2022/04/22 00:48:15;;;;;;;11.80;10.60;;;10.40;99.90;;;;;;2613481;39;20748;-74
2022/04/22 00:50:42;;;;;;;13.03;10.37;;;10.40;99.90;;;;;;2611507;54;20389;-74
2022/04/22 00:53:09;;;;;;;14.43;11.10;;;10.40;99.90;;;;;;2609993;39;20801;-75
2022/04/22 00:55:41;;;;;;;12.17;10.97;;;10.30;99.90;;;;;;2612045;54;20957;-74
2022/04/22 00:58:07;;;;;;;12.97;11.40;;;10.30;99.90;;;;;;2611142;54;20463;-75
2022/04/22 01:00:34;;;;;;;15.03;11.67;;;10.30;99.90;;;;;;2609235;54;21225;-79
2022/04/22 01:03:00;;;;;;;14.83;11.87;;;10.30;99.90;;;;;;2609331;54;20505;-76
2022/04/22 01:10:57;;;;;;;13.87;11.10;;;10.20;99.90;;;;;;2611308;54;20418;-78
2022/04/22 01:13:24;;;;;;;13.33;11.80;;;10.20;99.90;;;;;;2610957;54;21469;-76
2022/04/22 01:15:50;;;;;;;13.33;11.83;;;10.20;99.90;;;;;;2613932;54;20420;-79
2022/04/22 01:18:17;;;;;;;13.73;10.90;;;10.20;99.90;;;;;;2610629;54;20522;-76
2022/04/22 01:20:43;;;;;;;13.40;11.90;;;10.20;99.90;;;;;;2609537;39;21152;-77
2022/04/22 01:23:09;;;;;;;14.00;12.50;;;10.20;99.90;;;;;;2611264;54;20407;-80
2022/04/22 01:25:35;;;;;;;13.60;12.10;;;10.20;99.90;;;;;;2609459;54;20383;-79
2022/04/22 01:28:01;;;;;;;17.27;14.23;;;10.20;99.90;;;;;;2610331;54;20431;-80
2022/04/22 01:30:28;;;;;;;15.57;12.70;;;10.20;99.90;;;;;;2609608;54;20143;-80
2022/04/22 01:32:56;;;;;;;17.50;13.57;;;10.30;99.90;;;;;;2615998;39;20772;-80
2022/04/22 01:35:23;;;;;;;15.03;13.40;;;10.20;99.90;;;;;;2612690;54;20424;-79
2022/04/22 01:37:49;;;;;;;16.40;12.23;;;10.20;99.90;;;;;;2608627;39;20815;-76
2022/04/22 01:40:15;;;;;;;18.47;11.47;;;10.20;99.90;;;;;;2609188;54;20983;-78
2022/04/22 01:42:42;;;;;;;13.57;12.10;;;10.20;99.90;;;;;;2610365;54;20932;-79
2022/04/22 01:45:09;;;;;;;18.23;13.10;;;10.10;99.90;;;;;;2610009;39;20951;-80
2022/04/22 01:47:35;;;;;;;18.57;12.67;;;10.20;99.90;;;;;;2608932;39;20545;-79
2022/04/22 01:50:02;;;;;;;15.07;12.80;;;10.10;99.90;;;;;;2612033;54;20399;-79
2022/04/22 01:52:29;;;;;;;16.90;12.87;;;10.20;99.90;;;;;;2611282;54;20250;-78
2022/04/22 01:54:55;;;;;;;17.47;12.53;;;10.20;99.90;;;;;;2608959;54;20438;-79
2022/04/22 01:57:21;;;;;;;20.30;12.57;;;10.20;99.90;;;;;;2608759;54;20396;-79
2022/04/22 01:59:48;;;;;;;15.97;12.50;;;10.20;99.90;;;;;;2610205;54;20411;-76
2022/04/22 02:02:16;;;;;;;15.73;13.23;;;10.20;99.90;;;;;;2610379;54;20461;-80
2022/04/22 02:04:42;;;;;;;19.97;13.47;;;10.20;99.90;;;;;;2609423;54;21117;-79
2022/04/22 02:07:08;;;;;;;15.83;13.30;;;10.20;99.90;;;;;;2610553;46;20538;-79
2022/04/22 02:09:33;;;;;;;17.50;14.20;;;10.20;99.90;;;;;;2615462;54;20396;-79
2022/04/22 02:12:00;;;;;;;18.73;16.37;;;10.20;99.90;;;;;;2611307;54;20515;-76
2022/04/22 02:14:26;;;;;;;16.43;12.90;;;10.20;99.90;;;;;;2610497;54;20932;-79
2022/04/22 02:16:53;;;;;;;13.87;11.60;;;10.20;99.90;;;;;;2609709;54;20423;-80
2022/04/22 02:19:19;;;;;;;19.00;13.80;;;10.10;99.90;;;;;;2610843;39;21122;-80
2022/04/22 02:21:45;;;;;;;15.40;12.93;;;10.10;99.90;;;;;;2610450;54;20458;-79
2022/04/22 02:24:12;;;;;;;21.03;13.67;;;10.10;99.90;;;;;;2608487;54;20423;-77
2022/04/22 02:29:23;;;;;;;22.90;15.43;;;10.10;99.90;;;;;;2615482;54;20453;-77
2022/04/22 02:31:53;;;;;;;16.40;13.60;;;10.00;99.90;;;;;;2609256;54;20462;-80
2022/04/22 02:34:23;;;;;;;16.57;13.13;;;10.10;99.90;;;;;;2608813;47;20444;-80
2022/04/22 02:36:50;;;;;;;18.70;14.23;;;10.00;99.90;;;;;;2609763;54;20489;-77
2022/04/22 02:39:17;;;;;;;17.83;14.87;;;10.00;99.90;;;;;;2610279;54;20455;-80
2022/04/22 02:47:13;;;;;;;17.87;13.23;;;9.90;99.90;;;;;;2610171;54;20426;-79
2022/04/22 02:49:44;;;;;;;20.97;16.07;;;9.90;99.90;;;;;;2609478;46;20446;-77
2022/04/22 02:52:10;;;;;;;20.70;14.43;;;9.90;99.90;;;;;;2609496;54;20412;-79
2022/04/22 02:54:37;;;;;;;21.93;16.20;;;9.90;99.90;;;;;;2608932;39;20982;-79
2022/04/22 02:57:02;;;;;;;15.60;13.87;;;9.90;99.90;;;;;;2607488;47;20442;-75
2022/04/22 02:59:29;;;;;;;17.17;13.97;;;9.80;99.90;;;;;;2608982;54;20407;-80
2022/04/22 03:01:55;;;;;;;17.20;15.13;;;9.80;99.90;;;;;;2610658;51;20424;-80
2022/04/22 03:04:22;;;;;;;17.80;15.30;;;9.80;99.90;;;;;;2609217;54;20450;-79
2022/04/22 03:06:47;;;;;;;18.57;16.13;;;9.80;99.90;;;;;;2605642;54;20383;-77
2022/04/22 03:09:13;;;;;;;16.70;13.60;;;9.80;99.90;;;;;;2607592;39;20796;-77
2022/04/22 03:11:39;;;;;;;18.90;14.43;;;9.80;99.90;;;;;;2608800;54;20246;-78
2022/04/22 03:14:05;;;;;;;17.67;14.93;;;9.80;99.90;;;;;;2608223;47;20155;-80
2022/04/22 03:16:32;;;;;;;20.17;15.87;;;9.70;99.90;;;;;;2607519;54;20155;-76
2022/04/22 03:18:58;;;;;;;18.07;15.17;;;9.70;99.90;;;;;;2609876;54;20383;-79
2022/04/22 03:21:34;;;;;;;19.10;15.50;;;9.60;99.90;;;;;;2612526;54;20466;-81
2022/04/22 03:24:00;;;;;;;17.37;15.53;;;9.60;99.90;;;;;;2608270;54;20429;-79
2022/04/22 03:26:26;;;;;;;19.00;14.80;;;9.60;99.90;;;;;;2607595;39;20781;-81
2022/04/22 03:28:56;;;;;;;21.30;16.43;;;9.50;99.90;;;;;;2607092;54;20398;-78
2022/04/22 03:31:22;;;;;;;19.37;14.37;;;9.50;99.90;;;;;;2606347;54;20422;-78
2022/04/22 03:33:48;;;;;;;24.83;16.90;;;9.50;99.90;;;;;;2608424;31;20930;-76
2022/04/22 03:36:14;;;;;;;21.80;15.43;;;9.50;99.90;;;;;;2608839;54;20442;-80
2022/04/22 03:38:40;;;;;;;22.27;17.30;;;9.50;99.90;;;;;;2611514;54;20149;-79
2022/04/22 03:41:06;;;;;;;20.57;16.23;;;9.50;99.90;;;;;;2610843;54;20219;-79
2022/04/22 03:43:31;;;;;;;19.40;15.90;;;9.50;99.90;;;;;;2608948;47;20162;-78
2022/04/22 03:45:58;;;;;;;23.17;16.27;;;9.40;99.90;;;;;;2607771;47;20167;-78
2022/04/22 03:48:24;;;;;;;21.87;18.03;;;9.40;99.90;;;;;;2608086;47;20165;-78
2022/04/22 03:50:50;;;;;;;21.87;17.30;;;9.40;99.90;;;;;;2607868;39;20896;-80
2022/04/22 03:53:16;;;;;;;23.60;17.87;;;9.30;99.90;;;;;;2607243;54;20405;-79
2022/04/22 03:55:43;;;;;;;22.33;16.37;;;9.30;99.90;;;;;;2609731;39;20547;-81
2022/04/22 03:58:10;;;;;;;27.67;16.97;;;9.30;99.90;;;;;;2610016;54;20439;-79
2022/04/22 04:00:46;;;;;;;26.00;18.83;;;9.30;99.90;;;;;;2609140;47;20434;-80
2022/04/22 04:03:17;;;;;;;31.43;18.73;;;9.30;99.90;;;;;;2606327;54;22382;-80
2022/04/22 04:05:51;;;;;;;26.13;18.53;;;9.30;99.90;;;;;;2606763;54;20462;-78
2022/04/22 04:08:21;;;;;;;24.27;19.83;;;9.30;99.90;;;;;;2608977;54;20486;-81
2022/04/22 04:16:16;;;;;;;22.33;18.73;;;9.30;99.90;;;;;;2611168;47;20410;-77
2022/04/22 04:18:42;;;;;;;27.67;18.53;;;9.30;99.90;;;;;;2606924;47;20492;-80
2022/04/22 04:23:58;;;;;;;26.93;19.60;;;9.20;99.90;;;;;;2607561;46;20461;-80
2022/04/22 04:26:25;;;;;;;23.50;19.10;;;9.20;99.90;;;;;;2607840;54;20390;-81
2022/04/22 04:28:52;;;;;;;25.30;20.67;;;9.30;99.90;;;;;;2608083;47;20414;-80
2022/04/22 04:31:20;;;;;;;27.17;20.87;;;9.30;99.90;;;;;;2609985;54;21011;-81
2022/04/22 04:33:49;;;;;;;24.80;20.33;;;9.40;99.90;;;;;;2611928;39;20822;-81
2022/04/22 04:36:15;;;;;;;23.90;20.20;;;9.30;99.90;;;;;;2607657;47;20502;-80
2022/04/22 04:38:41;;;;;;;27.77;22.60;;;9.30;99.90;;;;;;2606750;54;20402;-81
2022/04/22 04:41:09;;;;;;;28.63;21.33;;;9.40;99.90;;;;;;2606607;54;20436;-80
2022/04/22 04:43:36;;;;;;;24.07;19.97;;;9.40;99.90;;;;;;2606747;39;20425;-80
2022/04/22 04:46:03;;;;;;;29.03;22.90;;;9.40;99.90;;;;;;2608394;54;20382;-78
2022/04/22 04:48:28;;;;;;;30.30;22.70;;;9.40;99.90;;;;;;2611315;54;20401;-78
2022/04/22 04:50:55;;;;;;;29.43;22.93;;;9.40;99.90;;;;;;2611829;39;20780;-79
2022/04/22 04:53:25;;;;;;;34.53;23.67;;;9.40;99.90;;;;;;2607909;46;20167;-78
2022/04/22 04:55:52;;;;;;;33.13;23.67;;;9.40;99.90;;;;;;2608635;54;20401;-80
2022/04/22 04:58:19;;;;;;;31.60;22.00;;;9.40;99.90;;;;;;2608550;54;20445;-77
2022/04/22 05:00:45;;;;;;;33.03;23.63;;;9.50;99.90;;;;;;2609686;54;20487;-76
2022/04/22 05:03:12;;;;;;;33.77;24.10;;;9.50;99.90;;;;;;2607101;54;21606;-79
2022/04/22 05:05:38;;;;;;;31.13;23.03;;;9.60;99.90;;;;;;2609070;54;20430;-77
2022/04/22 05:08:05;;;;;;;31.40;23.47;;;9.60;99.90;;;;;;2614611;54;20410;-81
2022/04/22 05:10:32;;;;;;;32.50;25.03;;;9.60;99.90;;;;;;2613803;54;20979;-76
2022/04/22 05:13:03;;;;;;;34.03;25.80;;;9.60;99.90;;;;;;2608416;54;20420;-79
2022/04/22 05:15:31;;;;;;;32.07;24.60;;;9.70;99.90;;;;;;2609866;54;20970;-78
2022/04/22 05:17:59;;;;;;;38.10;23.60;;;9.70;99.90;;;;;;2609317;54;20408;-79
2022/04/22 05:20:26;;;;;;;29.93;25.17;;;9.70;99.90;;;;;;2608616;47;20431;-77
2022/04/22 05:22:53;;;;;;;31.00;25.67;;;9.80;99.90;;;;;;2608781;54;20424;-80
2022/04/22 05:25:19;;;;;;;33.00;23.90;;;10.00;99.90;;;;;;2608684;54;20457;-78
2022/04/22 05:27:45;;;;;;;37.50;24.57;;;10.10;99.90;;;;;;2614018;54;20387;-84
2022/04/22 05:32:58;;;;;;;31.97;24.70;;;10.30;99.90;;;;;;2608239;54;20829;-77
2022/04/22 05:35:28;;;;;;;32.13;25.20;;;10.40;99.90;;;;;;2610811;54;20403;-80
2022/04/22 05:37:59;;;;;;;29.27;23.73;;;10.50;99.90;;;;;;2610775;54;21073;-78
2022/04/22 05:40:27;;;;;;;30.17;20.70;;;10.50;99.90;;;;;;2612800;54;20402;-78
2022/04/22 05:42:54;;;;;;;23.93;19.33;;;10.60;99.90;;;;;;2613843;54;20400;-80
2022/04/22 05:45:21;;;;;;;30.50;21.80;;;10.60;99.90;;;;;;2612956;54;20419;-79
2022/04/22 05:47:48;;;;;;;33.97;23.70;;;10.70;99.90;;;;;;2610910;54;21289;-76
2022/04/22 05:50:17;;;;;;;28.80;22.20;;;10.70;99.90;;;;;;2613810;39;20820;-80
2022/04/22 05:52:43;;;;;;;28.40;21.67;;;10.80;99.90;;;;;;2611906;54;20424;-79
2022/04/22 05:55:11;;;;;;;26.43;21.30;;;10.90;99.90;;;;;;2609959;54;20512;-77
2022/04/22 05:57:37;;;;;;;28.97;21.90;;;10.90;99.90;;;;;;2610020;54;20383;-77
2022/04/22 06:00:08;;;;;;;28.50;21.60;;;11.00;99.90;;;;;;2610632;54;20451;-77
2022/04/22 06:02:41;;;;;;;22.70;18.57;;;11.10;99.90;;;;;;2610510;54;20444;-79
2022/04/22 06:05:09;;;;;;;24.60;20.50;;;11.10;99.90;;;;;;2607082;54;20484;-79
2022/04/22 06:07:35;;;;;;;25.87;21.47;;;11.10;99.90;;;;;;2602813;47;20562;-78
2022/04/22 06:12:46;;;;;;;23.63;20.50;;;11.20;99.90;;;;;;2611510;54;20383;-76
2022/04/22 06:15:12;;;;;;;22.90;20.43;;;11.20;99.90;;;;;;2607001;54;20502;-80
2022/04/22 06:17:38;;;;;;;25.83;19.63;;;11.30;99.90;;;;;;2610946;54;20151;-78
2022/04/22 06:20:04;;;;;;;25.33;19.53;;;11.30;99.90;;;;;;2611028;54;20147;-77
2022/04/22 06:22:31;;;;;;;32.67;23.20;;;11.40;99.90;;;;;;2608208;47;20193;-78
2022/04/22 06:24:57;;;;;;;21.03;17.70;;;11.40;99.90;;;;;;2608199;54;20932;-78
2022/04/22 06:27:34;;;;;;;24.10;19.47;;;11.50;99.90;;;;;;2607893;39;20906;-81
2022/04/22 06:30:05;;;;;;;21.77;17.43;;;11.50;99.90;;;;;;2608819;46;20452;-76
2022/04/22 06:32:31;;;;;;;22.90;18.17;;;11.50;99.90;;;;;;2608514;54;20516;-79
2022/04/22 06:34:57;;;;;;;21.00;17.63;;;11.60;99.90;;;;;;2607446;54;20380;-76
2022/04/22 06:37:23;;;;;;;21.27;17.07;;;11.70;99.90;;;;;;2610476;54;20392;-80
2022/04/22 06:48:09;;;;;;;19.07;15.70;;;12.10;99.90;;;;;;2607955;47;20415;-80
2022/04/22 06:50:36;;;;;;;18.37;15.13;;;12.30;99.90;;;;;;2611949;54;20424;-78
2022/04/22 06:53:02;;;;;;;19.13;15.07;;;12.90;99.90;;;;;;2608711;54;20999;-80
2022/04/22 06:55:28;;;;;;;15.20;13.73;;;13.30;99.90;;;;;;2610811;54;20471;-77
2022/04/22 06:57:56;;;;;;;16.70;14.57;;;13.70;99.90;;;;;;2611597;54;20921;-79
2022/04/22 07:00:23;;;;;;;14.33;12.53;;;14.00;99.90;;;;;;2607683;54;20432;-79
2022/04/22 07:02:49;;;;;;;15.03;13.63;;;13.80;99.90;;;;;;2612905;54;21055;-75
2022/04/22 07:05:16;;;;;;;17.97;14.20;;;13.60;99.90;;;;;;2609349;54;20453;-76
2022/04/22 07:07:45;;;;;;;17.30;13.87;;;13.50;99.90;;;;;;2611591;54;20501;-78
2022/04/22 07:10:11;;;;;;;18.43;13.53;;;13.50;99.90;;;;;;2611871;54;20423;-78
2022/04/22 07:12:37;;;;;;;14.53;13.03;;;13.60;99.90;;;;;;2610698;54;20967;-77
2022/04/22 07:15:04;;;;;;;15.63;13.80;;;14.10;99.90;;;;;;2612523;54;20400;-75
2022/04/22 07:17:34;;;;;;;14.67;12.70;;;15.00;99.90;;;;;;2611882;54;20404;-76
2022/04/22 07:20:01;;;;;;;16.03;14.53;;;15.70;90.80;;;;;;2613023;54;20413;-76
2022/04/22 07:22:27;;;;;;;15.50;13.90;;;15.80;86.70;;;;;;2614030;54;21886;-77
2022/04/22 07:24:55;;;;;;;15.23;12.67;;;15.60;87.00;;;;;;2606434;54;22207;-80
2022/04/22 07:27:28;;;;;;;13.50;12.10;;;15.50;82.60;;;;;;2611697;54;20492;-76
2022/04/22 07:29:55;;;;;;;13.13;11.93;;;15.40;84.50;;;;;;2610839;54;20404;-78
2022/04/22 07:32:22;;;;;;;14.93;13.53;;;15.10;83.60;;;;;;2611852;49;20427;-79
2022/04/22 07:34:48;;;;;;;13.40;11.90;;;14.80;86.50;;;;;;2611428;39;21083;-76
2022/04/22 07:37:15;;;;;;;15.97;14.27;;;14.90;84.00;;;;;;2609996;39;20882;-78
2022/04/22 07:39:42;;;;;;;13.30;12.00;;;14.80;85.50;;;;;;2610704;54;20455;-79
2022/04/22 07:42:08;;;;;;;16.43;14.83;;;14.50;88.70;;;;;;2611617;54;20463;-76
2022/04/22 07:47:22;;;;;;;16.27;14.40;;;14.50;92.10;;;;;;2610867;54;20467;-78
2022/04/22 07:49:50;;;;;;;15.00;13.60;;;14.70;87.20;;;;;;2612733;54;20435;-76
2022/04/22 07:52:16;;;;;;;14.00;12.67;;;14.70;82.90;;;;;;2611988;54;20443;-78
2022/04/22 07:54:42;;;;;;;17.13;11.67;;;14.40;79.80;;;;;;2610525;54;20880;-78
2022/04/22 07:57:10;;;;;;;17.77;13.40;;;14.20;80.10;;;;;;2608597;54;21762;-75
2022/04/22 07:59:36;;;;;;;16.70;13.93;;;14.00;82.40;;;;;;2609152;54;20143;-77
2022/04/22 08:02:03;;;;;;;14.70;13.13;;;13.90;86.60;;;;;;2610991;54;21273;-78
2022/04/22 08:04:30;;;;;;;19.33;14.50;;;13.90;86.80;;;;;;2610429;47;20579;-75
2022/04/22 08:06:56;;;;;;;14.57;13.03;;;13.70;87.70;;;;;;2612442;54;20400;-79
2022/04/22 08:09:22;;;;;;;15.57;12.83;;;13.80;86.30;;;;;;2612806;47;20410;-76
2022/04/22 08:11:48;;;;;;;15.87;14.27;;;14.00;87.40;;;;;;2610812;39;20531;-77
2022/04/22 08:14:15;;;;;;;18.17;14.67;;;14.10;84.00;;;;;;2610293;54;20147;-79
2022/04/22 08:16:41;;;;;;;14.30;12.80;;;14.30;81.20;;;;;;2609486;54;22195;-78
2022/04/22 08:19:07;;;;;;;13.13;11.87;;;14.60;75.60;;;;;;2609163;54;20394;-78
2022/04/22 08:21:33;;;;;;;14.40;12.90;;;15.10;69.00;;;;;;2609256;54;20416;-76
2022/04/22 08:24:03;;;;;;;13.10;11.80;;;15.70;58.40;;;;;;2608003;46;20195;-77
2022/04/22 08:26:31;;;;;;;14.40;13.00;;;16.10;50.40;;;;;;2608735;39;20431;-79
2022/04/22 08:28:57;;;;;;;12.87;11.60;;;16.30;43.90;;;;;;2609312;54;20415;-79
2022/04/22 08:31:23;;;;;;;12.00;10.80;;;16.30;44.30;;;;;;2608559;54;20415;-78
2022/04/22 08:33:50;;;;;;;13.33;12.07;;;16.20;46.50;;;;;;2608690;47;21000;-77
2022/04/22 08:36:16;;;;;;;12.97;11.70;;;16.20;43.90;;;;;;2609435;54;20409;-78
2022/04/22 08:38:41;;;;;;;14.90;12.50;;;15.70;44.80;;;;;;2611497;54;20397;-79
2022/04/22 08:41:10;;;;;;;11.93;10.73;;;15.40;48.10;;;;;;2611224;54;20183;-76
2022/04/22 08:43:37;;;;;;;12.30;11.20;;;15.10;48.90;;;;;;2610336;54;20231;-77
2022/04/22 08:46:03;;;;;;;13.70;12.40;;;14.90;51.30;;;;;;2609650;54;21189;-80
2022/04/22 08:51:19;;;;;;;20.13;13.70;;;14.80;52.20;;;;;;2609164;54;20148;-78
2022/04/22 08:53:47;;;;;;;13.63;12.43;;;14.60;54.90;;;;;;2607679;54;20514;-78
2022/04/22 08:56:14;;;;;;;14.17;12.57;;;14.50;53.20;;;;;;2608696;54;20427;-77
2022/04/22 08:58:39;;;;;;;15.80;14.20;;;14.80;52.50;;;;;;2605731;54;20526;-75
2022/04/22 09:01:07;;;;;;;16.80;15.20;;;14.90;51.70;;;;;;2608322;39;20530;-79
2022/04/22 09:03:33;;;;;;;17.00;14.87;;;14.80;52.20;;;;;;2608867;54;20199;-80
2022/04/22 09:05:59;;;;;;;16.07;14.47;;;14.70;55.40;;;;;;2607746;47;21017;-77
2022/04/22 09:08:26;;;;;;;18.63;15.47;;;14.70;55.20;;;;;;2607496;54;20435;-78
2022/04/22 09:10:53;;;;;;;16.33;13.63;;;14.80;53.80;;;;;;2607920;54;20415;-75
2022/04/22 09:13:27;;;;;;;16.20;14.80;;;14.90;52.60;;;;;;2608110;54;20391;-76
2022/04/22 09:15:54;;;;;;;15.97;14.33;;;15.00;52.80;;;;;;2608200;54;20519;-77
2022/04/22 09:18:24;;;;;;;22.00;18.10;;;15.10;51.90;;;;;;2607512;54;20416;-76
2022/04/22 09:20:50;;;;;;;15.73;14.17;;;15.30;51.70;;;;;;2610885;54;20429;-76
2022/04/22 09:23:46;;;;;;;22.30;15.63;;;15.10;50.20;;;;;;2608613;54;20455;-79
2022/04/22 09:26:23;;;;;;;17.60;16.10;;;15.20;53.10;;;;;;2608835;54;20171;-76
2022/04/22 09:28:59;;;;;;;18.27;16.60;;;15.30;51.50;;;;;;2610411;39;20783;-78
2022/04/22 09:31:26;;;;;;;16.87;14.93;;;15.40;50.80;;;;;;2610087;54;20510;-78
2022/04/22 09:33:53;;;;;;;17.43;15.83;;;15.30;50.50;;;;;;2610904;54;20948;-77
2022/04/22 09:45:07;;;;;;;16.27;14.70;;;15.40;49.60;;;;;;2611481;54;20411;-79
2022/04/22 09:47:37;;;;;;;15.73;14.10;;;15.30;50.50;;;;;;2609447;54;20420;-78
2022/04/22 09:50:05;;;;;;;15.13;13.63;;;15.20;50.40;;;;;;2609379;47;20506;-76
2022/04/22 09:52:34;;;;;;;14.00;12.63;;;15.40;51.30;;;;;;2610435;54;20427;-77
2022/04/22 09:55:08;;;;;;;14.00;12.60;;;15.30;47.50;;;;;;2610419;54;20408;-76
2022/04/22 09:57:52;;;;;;;13.50;12.10;;;15.20;49.10;;;;;;2611229;54;20424;-77
2022/04/22 10:00:19;;;;;;;14.30;12.80;;;15.20;50.20;;;;;;2609520;51;20424;-79
2022/04/22 10:02:50;;;;;;;12.33;11.03;;;15.40;48.80;;;;;;2608445;54;20408;-76
2022/04/22 10:05:19;;;;;;;13.27;12.07;;;15.30;47.70;;;;;;2609320;54;20455;-78
2022/04/22 10:07:47;;;;;;;10.80;9.40;;;15.30;48.40;;;;;;2609138;54;20434;-78
2022/04/22 10:10:14;;;;;;;13.60;12.30;;;15.20;47.10;;;;;;2609810;54;20432;-76
2022/04/22 10:12:42;;;;;;;12.80;11.00;;;15.20;45.30;;;;;;2611083;54;20982;-77
2022/04/22 10:15:09;;;;;;;13.10;11.37;;;15.00;46.70;;;;;;2610876;54;20918;-79
2022/04/22 10:17:37;;;;;;;10.43;9.03;;;14.90;48.10;;;;;;2609005;54;20424;-75
2022/04/22 10:20:06;;;;;;;12.30;11.10;;;14.80;47.10;;;;;;2607651;54;20531;-78
2022/04/22 10:22:33;;;;;;;17.20;11.07;;;14.70;48.00;;;;;;2610225;54;20404;-77
2022/04/22 10:25:02;;;;;;;11.60;9.20;;;14.80;49.30;;;;;;2608496;54;20404;-77
2022/04/22 10:27:32;;;;;;;10.50;9.40;;;14.90;48.10;;;;;;2612740;54;20433;-77
2022/04/22 10:29:59;;;;;;;10.47;9.50;;;15.20;46.00;;;;;;2614404;46;20416;-75
2022/04/22 10:32:27;;;;;;;10.93;9.30;;;15.60;44.10;;;;;;2611470;47;20487;-79
2022/04/22 10:34:58;;;;;;;11.23;10.23;;;15.40;43.20;;;;;;2607638;47;20420;-76
2022/04/22 10:37:26;;;;;;;11.27;10.10;;;15.50;43.00;;;;;;2606891;47;20969;-76
2022/04/22 10:39:56;;;;;;;11.83;10.43;;;15.50;42.30;;;;;;2608370;54;20540;-73
2022/04/22 10:42:38;;;;;;;13.70;9.80;;;15.60;42.00;;;;;;2607442;54;20543;-76
2022/04/22 10:47:56;;;;;;;11.90;10.87;;;16.10;37.10;;;;;;2607264;47;21051;-78
2022/04/22 10:50:37;;;;;;;12.70;11.40;;;16.10;38.00;;;;;;2608476;47;20413;-76
2022/04/22 10:53:23;;;;;;;13.17;10.07;;;16.10;38.50;;;;;;2608136;46;20559;-76
2022/04/22 10:55:49;;;;;;;11.40;10.30;;;16.20;38.40;;;;;;2607807;54;21813;-77
2022/04/22 10:58:21;;;;;;;12.90;10.40;;;16.20;37.00;;;;;;2609299;54;20413;-76
2022/04/22 11:00:55;;;;;;;11.30;9.73;;;16.00;37.80;;;;;;2612859;54;20396;-78
2022/04/22 11:03:22;;;;;;;12.30;10.70;;;15.90;39.40;;;;;;2612488;47;20470;-79
2022/04/22 11:06:01;;;;;;;12.60;11.13;;;15.60;41.60;;;;;;2608570;54;20423;-74
2022/04/22 11:08:31;;;;;;;11.57;10.43;;;15.60;42.90;;;;;;2612270;54;20941;-76
2022/04/22 11:11:00;;;;;;;12.83;10.80;;;15.40;43.20;;;;;;2612499;54;20392;-76
2022/04/22 11:13:31;;;;;;;13.30;11.90;;;15.40;44.90;;;;;;2612393;54;20415;-80
2022/04/22 11:16:04;;;;;;;16.23;13.63;;;15.30;46.00;;;;;;2610733;54;20396;-78
2022/04/22 11:18:30;;;;;;;13.43;12.20;;;15.40;45.60;;;;;;2608671;54;20520;-76
2022/04/22 11:21:10;;;;;;;16.50;14.00;;;15.50;46.60;;;;;;2611981;39;20788;-78
2022/04/22 11:23:37;;;;;;;15.47;13.87;;;15.50;46.80;;;;;;2609393;54;20420;-80
2022/04/22 11:26:05;;;;;;;13.77;12.20;;;15.50;48.30;;;;;;2609726;39;21043;-80
2022/04/22 11:28:37;;;;;;;12.63;11.33;;;16.10;43.10;;;;;;2610346;54;20520;-79
2022/04/22 11:31:06;;;;;;;13.87;11.97;;;16.50;39.40;;;;;;2611019;39;20798;-75
2022/04/22 11:33:56;;;;;;;13.67;12.37;;;16.80;34.50;;;;;;2608413;54;20491;-79
2022/04/22 11:36:24;;;;;;;14.30;12.50;;;16.90;34.90;;;;;;2609586;54;21105;-78
2022/04/22 11:38:51;;;;;;;14.23;12.73;;;17.00;34.10;;;;;;2609342;54;20432;-80
2022/04/22 11:41:18;;;;;;;14.00;11.90;;;16.90;33.30;;;;;;2609062;54;20512;-78
2022/04/22 11:43:46;;;;;;;15.10;12.37;;;16.70;35.20;;;;;;2609432;54;20795;-76
2022/04/22 11:46:14;;;;;;;17.47;15.30;;;16.60;36.30;;;;;;2608128;51;20943;-78
2022/04/22 11:48:45;;;;;;;16.37;14.87;;;16.30;39.00;;;;;;2609120;47;20500;-79
2022/04/22 11:51:14;;;;;;;16.23;14.73;;;16.30;40.40;;;;;;2609553;54;22745;-78
2022/04/22 11:54:01;;;;;;;12.93;11.73;;;16.50;39.00;;;;;;2609977;54;20388;-77
2022/04/22 11:56:27;;;;;;;21.27;14.33;;;16.40;39.60;;;;;;2609902;54;20415;-74
2022/04/22 11:58:54;;;;;;;14.23;12.77;;;16.20;40.00;;;;;;2608170;54;20528;-78
2022/04/22 12:06:58;;;;;;;14.00;12.47;;;16.00;40.60;;;;;;2611460;47;20424;-81
2022/04/22 12:09:25;;;;;;;15.00;13.50;;;15.80;42.60;;;;;;2611629;54;20412;-78
2022/04/22 12:11:51;;;;;;;14.33;12.63;;;15.80;42.00;;;;;;2612619;54;20609;-78
2022/04/22 12:14:25;;;;;;;15.43;13.93;;;16.10;43.90;;;;;;2613396;47;20438;-78
2022/04/22 12:16:59;;;;;;;13.30;11.90;;;16.50;41.80;;;;;;2610743;54;20527;-76
2022/04/22 12:19:28;;;;;;;16.77;12.80;;;16.60;39.20;;;;;;2607793;54;20396;-80
2022/04/22 12:21:55;;;;;;;14.70;13.20;;;16.80;34.70;;;;;;2613221;54;20528;-79
2022/04/22 12:24:23;;;;;;;16.20;12.30;;;17.40;32.40;;;;;;2612934;54;21110;-80
2022/04/22 12:26:51;;;;;;;17.13;13.50;;;17.90;25.40;;;;;;2611803;47;20417;-78
2022/04/22 12:29:20;;;;;;;16.30;14.47;;;17.90;23.70;;;;;;2609671;54;20934;-78
2022/04/22 12:31:51;;;;;;;15.33;13.77;;;17.70;24.10;;;;;;2608679;54;20506;-77
2022/04/22 12:34:32;;;;;;;14.77;13.37;;;18.10;21.20;;;;;;2607272;54;20385;-76
2022/04/22 12:37:03;;;;;;;14.80;13.27;;;18.60;19.50;;;;;;2607102;54;20390;-78
2022/04/22 12:39:40;;;;;;;14.43;12.93;;;19.10;14.70;;;;;;2606212;54;20407;-76
2022/04/22 12:42:24;;;;;;;13.00;11.80;;;19.30;11.60;;;;;;2604761;54;20854;-76
2022/04/22 12:54:07;;;;;;;11.67;10.67;;;18.80;9.10;;;;;;2607702;47;20424;-80
2022/04/22 12:56:34;;;;;;;11.60;10.50;;;18.80;8.30;;;;;;2608680;54;20441;-80
2022/04/22 12:59:02;;;;;;;13.23;12.03;;;19.20;8.50;;;;;;2606547;54;21313;-78
2022/04/22 13:01:35;;;;;;;15.63;12.10;;;19.40;6.70;;;;;;2608878;54;20422;-79
2022/04/22 13:04:01;;;;;;;11.83;9.70;;;19.70;4.80;;;;;;2609047;47;20422;-78
2022/04/22 13:24:46;;;;;;;11.17;10.23;;;19.60;4.70;;;;;;2612075;54;20424;-75
2022/04/22 13:30:52;;;;;;;12.47;11.20;;;19.20;4.50;;;;;;2631879;36;21024;-74
2022/04/22 13:52:21;;;;;;;8.70;7.93;;;18.70;1.20;;;;;;2613643;54;20408;-73
2022/04/22 13:57:06;;;;;;;11.93;10.83;;;18.70;2.30;;;;;;2611476;46;20468;-73
2022/04/22 14:03:12;;;;;;;11.60;10.60;;;18.80;2.00;;;;;;2613508;54;20427;-73
2022/04/22 14:09:18;;;;;;;13.10;11.10;;;19.10;2.30;;;;;;2611430;54;20192;-73
2022/04/22 14:22:41;;;;;;;13.00;11.70;;;19.60;1.00;;;;;;2612675;46;20879;-74
2022/04/22 14:28:47;;;;;;;15.87;14.37;;;18.40;1.40;;;;;;2613114;54;20158;-75
2022/04/22 14:34:53;;;;;;;16.10;14.50;;;18.40;2.00;;;;;;2610692;39;21134;-75
2022/04/22 14:41:00;;;;;;;13.50;12.30;;;18.60;2.40;;;;;;2610947;54;20160;-72
2022/04/22 14:47:11;;;;;;;16.07;14.60;;;18.90;1.00;;;;;;2612184;54;20422;-74
2022/04/22 14:53:18;;;;;;;15.00;13.67;;;18.60;1.50;;;;;;2610926;54;20432;-73
2022/04/22 14:59:25;;;;;;;15.03;13.60;;;19.10;1.00;;;;;;2612681;39;20803;-75
2022/04/22 15:05:31;;;;;;;16.10;14.50;;;19.20;1.00;;;;;;2612949;54;20170;-72
2022/04/22 15:15:20;;;;;;;17.70;14.57;;;18.90;1.00;;;;;;2613276;54;20417;-73
2022/04/22 15:27:52;;;;;;;15.10;13.80;;;18.40;1.00;;;;;;2612528;54;20397;-73